| time (UTC) | temp F | wind direction | speed knots | gust knots | rain 1hr in | rain 24hr in | rain mn in | humidity % | barometer mb |
| 20260510174827 | 73 | 188 | 0.0 | 0.0 | 0.00 | 0.00 | 0.00 | 63 | 1012.4 |
| 20260510174326 | 74 | 178 | 0.9 | 0.9 | 0.00 | 0.00 | 0.00 | 63 | 1012.5 |
| 20260510173821 | 74 | 250 | 0.9 | 1.7 | 0.00 | 0.00 | 0.00 | 67 | 1012.5 |
| 20260510173318 | 73 | 225 | 0.9 | 1.7 | 0.00 | 0.00 | 0.00 | 68 | 1012.2 |
| 20260510172814 | 73 | 56 | 3.5 | 6.1 | 0.00 | 0.00 | 0.00 | 63 | 1012.6 |
| 20260510172310 | 71 | 92 | 0.9 | 1.7 | 0.00 | 0.00 | 0.00 | 67 | 1012.6 |
| 20260510171806 | 71 | 347 | 2.6 | 2.6 | 0.00 | 0.00 | 0.00 | 66 | 1012.4 |
| 20260510171303 | 70 | 251 | 1.7 | 1.7 | 0.00 | 0.00 | 0.00 | 69 | 1012.2 |
| 20260510170755 | 70 | 54 | 2.6 | 2.6 | 0.00 | 0.00 | 0.00 | 67 | 1012.4 |
| 20260510170251 | 70 | 55 | 0.9 | 1.7 | 0.00 | 0.00 | 0.00 | 68 | 1012.4 |
| 20260510165746 | 70 | 176 | 0.9 | 1.7 | 0.00 | 0.00 | 0.00 | 69 | 1012.6 |
| 20260510165243 | 70 | 216 | 0.0 | 0.9 | 0.00 | 0.00 | 0.00 | 71 | 1012.4 |
| 20260510164740 | 70 | 192 | 1.7 | 1.7 | 0.00 | 0.00 | 0.00 | 68 | 1012.5 |
| 20260510164237 | 69 | 314 | 0.9 | 0.9 | 0.00 | 0.00 | 0.00 | 71 | 1012.6 |
| 20260510163732 | 68 | 122 | 0.9 | 1.7 | 0.00 | 0.00 | 0.00 | 71 | 1012.5 |
| 20260510163228 | 68 | 63 | 0.9 | 0.9 | 0.00 | 0.00 | 0.00 | 73 | 1012.8 |
| 20260510162728 | 68 | 55 | 0.9 | 1.7 | 0.00 | 0.00 | 0.00 | 72 | 1012.8 |
| 20260510162225 | 68 | 251 | 1.7 | 1.7 | 0.00 | 0.00 | 0.00 | 71 | 1012.9 |
| 20260510161721 | 68 | 250 | 0.9 | 1.7 | 0.00 | 0.00 | 0.00 | 71 | 1012.7 |
| 20260510161217 | 67 | 232 | 0.9 | 0.9 | 0.00 | 0.00 | 0.00 | 73 | 1012.9 |
| 20260510160715 | 65 | 86 | 1.7 | 1.7 | 0.00 | 0.00 | 0.00 | 75 | 1012.7 |
| 20260510160209 | 66 | 204 | 0.9 | 0.9 | 0.00 | 0.00 | 0.00 | 75 | 1012.9 |
| 20260510155706 | 65 | 275 | 0.9 | 1.7 | 0.00 | 0.00 | 0.00 | 76 | 1013.1 |
| 20260510155202 | 65 | 266 | 2.6 | 4.3 | 0.00 | 0.00 | 0.00 | 77 | 1013.2 |
| 20260510154658 | 65 | 201 | 0.9 | 0.9 | 0.00 | 0.00 | 0.00 | 79 | 1013.5 |
| 20260510154154 | 63 | 184 | 3.5 | 4.3 | 0.00 | 0.00 | 0.00 | 82 | 1013.1 |
| 20260510153649 | 62 | 152 | 0.0 | 0.0 | 0.00 | 0.00 | 0.00 | 83 | 1013.1 |
| 20260510153146 | 62 | 63 | 0.9 | 1.7 | 0.00 | 0.00 | 0.00 | 83 | 1013.3 |
| 20260510152642 | 62 | 199 | 0.0 | 0.9 | 0.00 | 0.00 | 0.00 | 83 | 1013.3 |
| 20260510152138 | 61 | 254 | 1.7 | 1.7 | 0.00 | 0.00 | 0.00 | 84 | 1013.5 |
| 20260510151635 | 61 | 214 | 0.9 | 0.9 | 0.00 | 0.00 | 0.00 | 85 | 1013.3 |
| 20260510151133 | 60 | 43 | 0.9 | 0.9 | 0.00 | 0.00 | 0.00 | 86 | 1013.2 |
| 20260510150628 | 60 | 151 | 1.7 | 1.7 | 0.00 | 0.00 | 0.00 | 85 | 1013.2 |
| 20260510150124 | 60 | 221 | 0.0 | 0.0 | 0.00 | 0.00 | 0.00 | 86 | 1013.2 |
| 20260510145621 | 60 | 221 | 0.0 | 0.9 | 0.00 | 0.00 | 0.00 | 87 | 1013.0 |
| 20260510145118 | 59 | 221 | 0.0 | 0.0 | 0.00 | 0.00 | 0.00 | 87 | 1013.1 |
| 20260510144613 | 59 | 165 | 0.0 | 0.0 | 0.00 | 0.00 | 0.00 | 89 | 1013.2 |
| 20260510144110 | 58 | 157 | 1.7 | 1.7 | 0.00 | 0.00 | 0.00 | 90 | 1013.4 |
| 20260510143605 | 58 | 251 | 1.7 | 1.7 | 0.00 | 0.00 | 0.00 | 92 | 1013.1 |
| 20260510143102 | 58 | 206 | 0.0 | 0.0 | 0.00 | 0.00 | 0.00 | 93 | 1013.3 |
| 20260510142559 | 57 | 228 | 0.0 | 0.0 | 0.00 | 0.00 | 0.00 | 94 | 1013.1 |
| 20260510142055 | 57 | 0 | 0.9 | 0.9 | 0.00 | 0.00 | 0.00 | 95 | 1013.1 |
| 20260510141552 | 57 | 235 | 0.0 | 0.9 | 0.00 | 0.00 | 0.00 | 96 | 1013.2 |
| 20260510141050 | 56 | 210 | 0.0 | 0.9 | 0.00 | 0.00 | 0.00 | 96 | 1013.0 |
| 20260510140546 | 56 | 174 | 1.7 | 1.7 | 0.00 | 0.00 | 0.00 | 97 | 1013.1 |
| 20260510140045 | 56 | 266 | 0.9 | 1.7 | 0.00 | 0.00 | 0.00 | 97 | 1013.0 |
| 20260510135541 | 56 | 215 | 0.0 | 0.9 | 0.00 | 0.00 | 0.00 | 97 | 1013.1 |
| 20260510135038 | 55 | 196 | 0.9 | 0.9 | 0.00 | 0.00 | 0.00 | 98 | 1013.0 |
| 20260510134535 | 55 | 152 | 0.0 | 0.0 | 0.00 | 0.00 | 0.00 | 98 | 1013.1 |
| 20260510134032 | 55 | 190 | 0.9 | 0.9 | 0.00 | 0.00 | 0.00 | 98 | 1013.0 |
| 20260510133527 | 55 | 209 | 0.9 | 0.9 | 0.00 | 0.00 | 0.00 | 98 | 1013.1 |
| 20260510133024 | 55 | 183 | 0.0 | 0.0 | 0.00 | 0.00 | 0.00 | 98 | 1013.3 |
| 20260510132521 | 55 | 207 | 0.0 | 0.9 | 0.00 | 0.00 | 0.00 | 98 | 1013.1 |
| 20260510132017 | 55 | 189 | 0.0 | 0.0 | 0.00 | 0.00 | 0.00 | 98 | 1013.4 |
| 20260510131515 | 55 | 213 | 0.0 | 0.9 | 0.00 | 0.00 | 0.00 | 98 | 1013.3 |
| 20260510131012 | 55 | 282 | 0.0 | 0.9 | 0.00 | 0.00 | 0.00 | 99 | 1013.2 |
| 20260510130508 | 55 | 228 | 0.9 | 0.9 | 0.00 | 0.00 | 0.00 | 99 | 1012.9 |
| 20260510130006 | 54 | 189 | 0.0 | 0.9 | 0.00 | 0.00 | 0.00 | 99 | 1012.8 |
| 20260510125502 | 54 | 188 | 1.7 | 1.7 | 0.00 | 0.00 | 0.00 | 99 | 1012.8 |
| 20260510124958 | 54 | 216 | 0.0 | 0.0 | 0.00 | 0.00 | 0.00 | 99 | 1012.9 |
| 20260510124455 | 54 | 154 | 1.7 | 1.7 | 0.00 | 0.00 | 0.00 | 99 | 1012.6 |
| 20260510123952 | 54 | 208 | 0.0 | 0.0 | 0.00 | 0.00 | 0.00 | 99 | 1012.4 |
| 20260510123447 | 54 | 198 | 0.9 | 0.9 | 0.00 | 0.00 | 0.00 | 99 | 1012.6 |
| 20260510122944 | 54 | 186 | 1.7 | 1.7 | 0.00 | 0.00 | 0.00 | 99 | 1012.3 |
| 20260510122439 | 54 | 160 | 0.9 | 1.7 | 0.00 | 0.00 | 0.00 | 99 | 1012.3 |
| 20260510121935 | 53 | 174 | 0.0 | 0.0 | 0.00 | 0.00 | 0.00 | 99 | 1012.3 |
| 20260510121433 | 53 | 213 | 0.9 | 0.9 | 0.00 | 0.00 | 0.00 | 99 | 1012.5 |
| 20260510120930 | 53 | 218 | 0.0 | 0.0 | 0.00 | 0.00 | 0.00 | 99 | 1012.4 |
| 20260510120427 | 53 | 196 | 0.0 | 0.0 | 0.00 | 0.00 | 0.00 | 99 | 1012.4 |
| 20260510115923 | 53 | 202 | 0.0 | 0.0 | 0.00 | 0.00 | 0.00 | 99 | 1012.1 |
| 20260510115421 | 53 | 219 | 0.0 | 0.0 | 0.00 | 0.00 | 0.00 | 99 | 1012.3 |
| 20260510114916 | 53 | 219 | 0.0 | 0.0 | 0.00 | 0.00 | 0.00 | 99 | 1012.4 |
| 20260510114413 | 53 | 219 | 0.0 | 0.0 | 0.00 | 0.00 | 0.00 | 99 | 1012.2 |
| 20260510113908 | 53 | 219 | 0.0 | 0.0 | 0.00 | 0.00 | 0.00 | 99 | 1012.3 |
| 20260510113404 | 53 | 215 | 0.0 | 0.0 | 0.00 | 0.00 | 0.00 | 99 | 1012.3 |
| 20260510112902 | 53 | 211 | 0.0 | 0.0 | 0.00 | 0.00 | 0.00 | 99 | 1012.3 |
| 20260510112359 | 52 | 192 | 0.0 | 0.0 | 0.00 | 0.00 | 0.00 | 99 | 1012.2 |
| 20260510111855 | 52 | 203 | 0.0 | 0.0 | 0.00 | 0.00 | 0.00 | 99 | 1012.1 |
| 20260510111351 | 52 | 219 | 0.0 | 0.0 | 0.00 | 0.00 | 0.00 | 99 | 1012.0 |
| 20260510110847 | 52 | 187 | 0.9 | 1.7 | 0.00 | 0.00 | 0.00 | 99 | 1012.1 |
| 20260510110343 | 52 | 185 | 0.0 | 0.0 | 0.00 | 0.00 | 0.00 | 99 | 1011.9 |
| 20260510105840 | 52 | 201 | 0.0 | 0.0 | 0.00 | 0.00 | 0.00 | 99 | 1011.8 |
| 20260510105339 | 52 | 187 | 0.0 | 0.0 | 0.00 | 0.00 | 0.00 | 99 | 1011.9 |
| 20260510104836 | 52 | 184 | 0.0 | 0.0 | 0.00 | 0.00 | 0.00 | 99 | 1011.7 |
| 20260510104333 | 52 | 224 | 0.0 | 0.0 | 0.00 | 0.00 | 0.00 | 99 | 1011.6 |
| 20260510103829 | 52 | 243 | 0.0 | 0.9 | 0.00 | 0.00 | 0.00 | 99 | 1011.7 |
| 20260510103326 | 52 | 195 | 0.0 | 0.0 | 0.00 | 0.00 | 0.00 | 99 | 1011.6 |
| 20260510102822 | 51 | 194 | 0.0 | 0.0 | 0.00 | 0.00 | 0.00 | 99 | 1011.4 |
| 20260510102317 | 51 | 200 | 0.0 | 0.0 | 0.00 | 0.00 | 0.00 | 99 | 1011.5 |
| 20260510101815 | 51 | 201 | 0.0 | 0.0 | 0.00 | 0.00 | 0.00 | 99 | 1011.6 |
| 20260510101313 | 51 | 190 | 0.0 | 0.0 | 0.00 | 0.00 | 0.00 | 99 | 1011.4 |
| 20260510100809 | 51 | 190 | 0.0 | 0.0 | 0.00 | 0.00 | 0.00 | 99 | 1011.7 |
| 20260510100307 | 51 | 198 | 0.0 | 0.0 | 0.00 | 0.00 | 0.00 | 99 | 1011.7 |
| 20260510095802 | 50 | 198 | 0.0 | 0.0 | 0.00 | 0.00 | 0.00 | 99 | 1011.7 |
| 20260510095257 | 50 | 198 | 0.0 | 0.0 | 0.00 | 0.00 | 0.00 | 99 | 1011.6 |
| 20260510094756 | 50 | 203 | 0.0 | 0.0 | 0.00 | 0.00 | 0.00 | 99 | 1011.5 |
| 20260510094252 | 50 | 202 | 0.0 | 0.0 | 0.00 | 0.00 | 0.00 | 99 | 1011.8 |
| 20260510093748 | 50 | 204 | 0.0 | 0.0 | 0.00 | 0.00 | 0.00 | 99 | 1011.8 |
| 20260510093245 | 50 | 180 | 0.0 | 0.0 | 0.00 | 0.00 | 0.00 | 99 | 1011.5 |
| 20260510092741 | 50 | 180 | 0.0 | 0.0 | 0.00 | 0.00 | 0.00 | 99 | 1011.7 |
| 20260510092237 | 50 | 143 | 0.0 | 0.0 | 0.00 | 0.00 | 0.00 | 99 | 1012.0 |
| 20260510091733 | 50 | 179 | 0.0 | 0.0 | 0.00 | 0.00 | 0.00 | 99 | 1011.6 |
| 20260510091231 | 50 | 26 | 2.6 | 2.6 | 0.00 | 0.00 | 0.00 | 99 | 1011.8 |
| 20260510090726 | 50 | 162 | 0.0 | 0.0 | 0.00 | 0.00 | 0.00 | 99 | 1011.9 |
| 20260510090224 | 50 | 74 | 1.7 | 1.7 | 0.00 | 0.00 | 0.00 | 99 | 1012.0 |
| 20260510085719 | 51 | 237 | 2.6 | 2.6 | 0.00 | 0.00 | 0.00 | 99 | 1012.0 |
| 20260510085214 | 51 | 34 | 1.7 | 2.6 | 0.00 | 0.00 | 0.00 | 99 | 1011.7 |
| 20260510084710 | 51 | 59 | 0.9 | 1.7 | 0.00 | 0.00 | 0.00 | 99 | 1011.9 |
| 20260510084208 | 52 | 354 | 0.9 | 1.7 | 0.00 | 0.00 | 0.00 | 99 | 1011.8 |
| 20260510083704 | 52 | 3 | 2.6 | 2.6 | 0.00 | 0.00 | 0.00 | 99 | 1011.7 |
| 20260510083201 | 52 | 186 | 0.0 | 0.0 | 0.00 | 0.00 | 0.00 | 99 | 1011.2 |
| 20260510082656 | 52 | 186 | 0.0 | 0.0 | 0.00 | 0.00 | 0.00 | 99 | 1011.0 |
| 20260510082153 | 51 | 189 | 0.0 | 0.0 | 0.00 | 0.00 | 0.00 | 99 | 1011.0 |
| 20260510081647 | 51 | 189 | 0.0 | 0.0 | 0.00 | 0.00 | 0.00 | 99 | 1011.1 |
| 20260510081144 | 52 | 164 | 0.9 | 0.9 | 0.00 | 0.00 | 0.00 | 99 | 1011.1 |
| 20260510080643 | 52 | 187 | 0.0 | 0.0 | 0.00 | 0.00 | 0.00 | 99 | 1011.1 |
| 20260510080140 | 52 | 204 | 0.0 | 0.0 | 0.00 | 0.00 | 0.00 | 99 | 1011.1 |
| 20260510075637 | 52 | 177 | 0.0 | 0.0 | 0.00 | 0.00 | 0.00 | 98 | 1011.1 |
| 20260510075134 | 52 | 166 | 0.0 | 0.0 | 0.00 | 0.00 | 0.00 | 98 | 1011.0 |
| 20260510074631 | 52 | 193 | 0.0 | 0.0 | 0.00 | 0.00 | 0.00 | 98 | 1011.1 |
| 20260510074127 | 52 | 203 | 0.0 | 0.0 | 0.00 | 0.00 | 0.00 | 98 | 1011.0 |
| 20260510073623 | 52 | 184 | 0.0 | 0.0 | 0.00 | 0.00 | 0.00 | 98 | 1010.9 |
| 20260510073120 | 52 | 206 | 0.0 | 0.0 | 0.00 | 0.00 | 0.00 | 98 | 1010.8 |
| 20260510072616 | 52 | 341 | 0.0 | 0.9 | 0.00 | 0.00 | 0.00 | 98 | 1010.8 |
| 20260510072113 | 52 | 188 | 0.0 | 0.0 | 0.00 | 0.00 | 0.00 | 98 | 1010.8 |
| 20260510071608 | 52 | 182 | 0.0 | 0.0 | 0.00 | 0.00 | 0.00 | 98 | 1010.9 |
| 20260510071106 | 52 | 64 | 0.0 | 0.9 | 0.00 | 0.00 | 0.00 | 98 | 1010.8 |
| 20260510070558 | 52 | 28 | 0.9 | 0.9 | 0.00 | 0.00 | 0.00 | 98 | 1011.0 |
| 20260510070055 | 51 | 341 | 0.9 | 0.9 | 0.00 | 0.00 | 0.00 | 98 | 1010.6 |
| 20260510065551 | 51 | 15 | 0.9 | 1.7 | 0.00 | 0.00 | 0.00 | 98 | 1010.9 |
| 20260510065047 | 51 | 353 | 0.9 | 0.9 | 0.00 | 0.00 | 0.00 | 98 | 1010.7 |
| 20260510064543 | 51 | 243 | 0.0 | 0.9 | 0.00 | 0.00 | 0.00 | 98 | 1010.6 |
| 20260510064040 | 51 | 216 | 0.0 | 0.0 | 0.00 | 0.00 | 0.00 | 98 | 1010.6 |
| 20260510063537 | 51 | 216 | 0.0 | 0.0 | 0.00 | 0.00 | 0.00 | 98 | 1010.6 |
| 20260510063035 | 51 | 216 | 0.0 | 0.0 | 0.00 | 0.00 | 0.00 | 98 | 1010.5 |
| 20260510062530 | 50 | 216 | 0.0 | 0.0 | 0.00 | 0.00 | 0.00 | 98 | 1010.5 |
| 20260510062026 | 50 | 216 | 0.0 | 0.0 | 0.00 | 0.00 | 0.00 | 98 | 1010.5 |
| 20260510061522 | 50 | 216 | 0.0 | 0.0 | 0.00 | 0.00 | 0.00 | 98 | 1010.4 |
| 20260510061019 | 50 | 216 | 0.0 | 0.0 | 0.00 | 0.00 | 0.00 | 98 | 1010.8 |
| 20260510060516 | 50 | 216 | 0.0 | 0.0 | 0.00 | 0.00 | 0.00 | 98 | 1010.6 |
| 20260510060012 | 50 | 216 | 0.0 | 0.0 | 0.00 | 0.00 | 0.00 | 98 | 1010.5 |
| 20260510055508 | 50 | 216 | 0.0 | 0.0 | 0.00 | 0.00 | 0.00 | 98 | 1010.9 |
| 20260510055006 | 50 | 216 | 0.0 | 0.0 | 0.00 | 0.00 | 0.00 | 98 | 1010.7 |
| 20260510054501 | 50 | 216 | 0.0 | 0.0 | 0.00 | 0.00 | 0.00 | 98 | 1010.9 |
| 20260510053956 | 50 | 216 | 0.0 | 0.0 | 0.00 | 0.00 | 0.00 | 98 | 1010.9 |
| 20260510053451 | 49 | 216 | 0.0 | 0.0 | 0.00 | 0.00 | 0.00 | 98 | 1010.8 |
| 20260510052948 | 49 | 216 | 0.0 | 0.0 | 0.00 | 0.00 | 0.00 | 98 | 1010.8 |
| 20260510052444 | 49 | 216 | 0.0 | 0.0 | 0.00 | 0.00 | 0.00 | 98 | 1010.8 |
| 20260510051941 | 49 | 216 | 0.0 | 0.0 | 0.00 | 0.00 | 0.00 | 98 | 1010.9 |
| 20260510051437 | 49 | 216 | 0.0 | 0.0 | 0.00 | 0.00 | 0.00 | 98 | 1011.0 |
| 20260510050933 | 49 | 216 | 0.0 | 0.0 | 0.00 | 0.00 | 0.00 | 98 | 1010.9 |
| 20260510050430 | 49 | 216 | 0.0 | 0.0 | 0.00 | 0.00 | 0.00 | 98 | 1011.0 |
| 20260510045928 | 48 | 216 | 0.0 | 0.0 | 0.00 | 0.00 | 0.00 | 98 | 1011.0 |
| 20260510045425 | 48 | 216 | 0.0 | 0.0 | 0.00 | 0.00 | 0.00 | 98 | 1011.0 |
| 20260510044921 | 48 | 216 | 0.0 | 0.0 | 0.00 | 0.00 | 0.00 | 98 | 1010.9 |
| 20260510044418 | 48 | 216 | 0.0 | 0.0 | 0.00 | 0.00 | 0.00 | 98 | 1011.1 |
| 20260510043915 | 48 | 216 | 0.0 | 0.0 | 0.00 | 0.00 | 0.00 | 98 | 1011.0 |
| 20260510043411 | 48 | 216 | 0.0 | 0.0 | 0.00 | 0.00 | 0.00 | 97 | 1010.9 |
| 20260510042909 | 48 | 216 | 0.0 | 0.0 | 0.00 | 0.00 | 0.00 | 98 | 1011.1 |
| 20260510042405 | 48 | 216 | 0.0 | 0.0 | 0.00 | 0.00 | 0.00 | 97 | 1011.1 |
| 20260510041901 | 48 | 216 | 0.0 | 0.0 | 0.00 | 0.00 | 0.00 | 97 | 1011.0 |
| 20260510041358 | 48 | 216 | 0.0 | 0.0 | 0.00 | 0.00 | 0.00 | 97 | 1011.1 |
| 20260510040855 | 48 | 216 | 0.0 | 0.0 | 0.00 | 0.00 | 0.00 | 97 | 1010.9 |
| 20260510040352 | 48 | 216 | 0.0 | 0.0 | 0.00 | 0.00 | 0.00 | 97 | 1010.9 |
| 20260510035848 | 48 | 216 | 0.0 | 0.0 | 0.00 | 0.01 | 0.01 | 97 | 1010.9 |
| 20260510035344 | 48 | 216 | 0.0 | 0.0 | 0.00 | 0.01 | 0.01 | 97 | 1010.9 |
| 20260510034839 | 48 | 216 | 0.0 | 0.0 | 0.00 | 0.01 | 0.01 | 97 | 1011.1 |
| 20260510034338 | 48 | 216 | 0.0 | 0.0 | 0.00 | 0.01 | 0.01 | 97 | 1010.8 |
| 20260510033834 | 48 | 216 | 0.0 | 0.0 | 0.00 | 0.01 | 0.01 | 97 | 1010.8 |
| 20260510033330 | 48 | 216 | 0.0 | 0.0 | 0.00 | 0.01 | 0.01 | 97 | 1010.6 |
| 20260510032827 | 49 | 216 | 0.0 | 0.0 | 0.00 | 0.01 | 0.01 | 97 | 1010.9 |
| 20260510032324 | 48 | 216 | 0.0 | 0.0 | 0.00 | 0.01 | 0.01 | 97 | 1010.9 |
| 20260510031820 | 48 | 216 | 0.0 | 0.0 | 0.00 | 0.01 | 0.01 | 97 | 1010.8 |
| 20260510031315 | 49 | 216 | 0.0 | 0.0 | 0.00 | 0.01 | 0.01 | 97 | 1010.5 |
| 20260510030809 | 49 | 216 | 0.0 | 0.0 | 0.00 | 0.01 | 0.01 | 97 | 1010.9 |
| 20260510030306 | 49 | 216 | 0.0 | 0.0 | 0.00 | 0.01 | 0.01 | 97 | 1010.9 |
| 20260510025804 | 49 | 216 | 0.0 | 0.0 | 0.00 | 0.01 | 0.01 | 97 | 1010.6 |
| 20260510025301 | 49 | 216 | 0.0 | 0.0 | 0.00 | 0.01 | 0.01 | 97 | 1010.8 |
| 20260510024757 | 49 | 216 | 0.0 | 0.0 | 0.00 | 0.01 | 0.01 | 97 | 1010.6 |
| 20260510024254 | 50 | 216 | 0.0 | 0.0 | 0.00 | 0.01 | 0.01 | 96 | 1010.5 |
| 20260510023749 | 50 | 216 | 0.0 | 0.0 | 0.00 | 0.01 | 0.01 | 96 | 1010.5 |
| 20260510023242 | 50 | 216 | 0.0 | 0.0 | 0.00 | 0.01 | 0.01 | 96 | 1010.6 |
| 20260510022737 | 50 | 216 | 0.0 | 0.0 | 0.00 | 0.01 | 0.01 | 96 | 1010.5 |
| 20260510022232 | 50 | 216 | 0.0 | 0.0 | 0.00 | 0.01 | 0.01 | 96 | 1010.6 |
| 20260510021726 | 50 | 216 | 0.0 | 0.0 | 0.00 | 0.01 | 0.01 | 96 | 1010.5 |
| 20260510021225 | 51 | 216 | 0.0 | 0.0 | 0.00 | 0.01 | 0.01 | 96 | 1010.5 |
| 20260510020725 | 50 | 216 | 0.0 | 0.0 | 0.00 | 0.01 | 0.01 | 96 | 1010.9 |
| 20260510020220 | 50 | 216 | 0.0 | 0.0 | 0.00 | 0.01 | 0.01 | 96 | 1010.7 |
| 20260510015716 | 51 | 216 | 0.0 | 0.0 | 0.00 | 0.01 | 0.01 | 96 | 1010.5 |
| 20260510015212 | 51 | 216 | 0.0 | 0.0 | 0.00 | 0.01 | 0.01 | 96 | 1010.8 |
| 20260510014708 | 51 | 216 | 0.0 | 0.0 | 0.00 | 0.01 | 0.01 | 96 | 1010.5 |
| 20260510014205 | 51 | 216 | 0.0 | 0.0 | 0.00 | 0.01 | 0.01 | 96 | 1010.8 |
| 20260510013700 | 51 | 216 | 0.0 | 0.0 | 0.00 | 0.01 | 0.01 | 95 | 1010.5 |
| 20260510013156 | 51 | 216 | 0.0 | 0.0 | 0.00 | 0.01 | 0.01 | 95 | 1010.5 |
| 20260510012656 | 51 | 216 | 0.0 | 0.0 | 0.00 | 0.01 | 0.01 | 95 | 1010.5 |
| 20260510012151 | 52 | 216 | 0.0 | 0.0 | 0.00 | 0.01 | 0.01 | 95 | 1010.4 |
| 20260510011647 | 52 | 216 | 0.0 | 0.0 | 0.00 | 0.01 | 0.01 | 95 | 1010.5 |
| 20260510011143 | 52 | 216 | 0.0 | 0.0 | 0.00 | 0.01 | 0.01 | 95 | 1010.6 |
| 20260510010638 | 52 | 216 | 0.0 | 0.0 | 0.00 | 0.01 | 0.01 | 95 | 1010.6 |
| 20260510010136 | 52 | 216 | 0.0 | 0.0 | 0.00 | 0.01 | 0.01 | 95 | 1010.2 |
| 20260510005631 | 52 | 216 | 0.0 | 0.0 | 0.00 | 0.01 | 0.01 | 94 | 1010.2 |
| 20260510005129 | 53 | 216 | 0.0 | 0.0 | 0.00 | 0.01 | 0.01 | 94 | 1010.2 |
| 20260510004627 | 53 | 216 | 0.0 | 0.0 | 0.00 | 0.01 | 0.01 | 94 | 1010.5 |
| 20260510004125 | 53 | 216 | 0.0 | 0.0 | 0.00 | 0.01 | 0.01 | 94 | 1010.2 |
| 20260510003622 | 53 | 216 | 0.0 | 0.0 | 0.00 | 0.01 | 0.01 | 94 | 1010.1 |
| 20260510003118 | 53 | 216 | 0.0 | 0.0 | 0.00 | 0.01 | 0.01 | 93 | 1010.0 |
| 20260510002612 | 54 | 216 | 0.0 | 0.0 | 0.00 | 0.01 | 0.01 | 93 | 1010.3 |
| 20260510002109 | 54 | 216 | 0.0 | 0.0 | 0.00 | 0.01 | 0.01 | 93 | 1010.2 |
| 20260510001606 | 54 | 216 | 0.0 | 0.0 | 0.00 | 0.01 | 0.01 | 93 | 1010.1 |
| 20260510001106 | 54 | 216 | 0.0 | 0.0 | 0.00 | 0.01 | 0.01 | 92 | 1009.8 |
| 20260510000605 | 55 | 216 | 0.0 | 0.0 | 0.00 | 0.01 | 0.01 | 92 | 1010.2 |
| 20260509235559 | 55 | 216 | 0.0 | 0.0 | 0.00 | 0.01 | 0.01 | 91 | 1010.0 |
| 20260509235055 | 55 | 216 | 0.0 | 0.0 | 0.00 | 0.01 | 0.01 | 90 | 1009.9 |
| 20260509234551 | 56 | 216 | 0.0 | 0.0 | 0.00 | 0.01 | 0.01 | 90 | 1010.2 |
| 20260509234050 | 56 | 215 | 0.0 | 0.0 | 0.00 | 0.01 | 0.01 | 90 | 1010.0 |
| 20260509233547 | 56 | 216 | 0.0 | 0.0 | 0.00 | 0.01 | 0.01 | 89 | 1010.0 |
| 20260509233044 | 56 | 216 | 0.0 | 0.0 | 0.00 | 0.01 | 0.01 | 89 | 1009.9 |
| 20260509232540 | 57 | 207 | 0.0 | 0.0 | 0.00 | 0.01 | 0.01 | 89 | 1009.6 |
| 20260509232037 | 57 | 208 | 0.0 | 0.0 | 0.00 | 0.01 | 0.01 | 89 | 1009.5 |
| 20260509231533 | 57 | 195 | 0.9 | 1.7 | 0.00 | 0.01 | 0.01 | 89 | 1009.9 |
| 20260509231032 | 57 | 170 | 0.9 | 0.9 | 0.00 | 0.01 | 0.01 | 88 | 1009.8 |
| 20260509230528 | 57 | 193 | 1.7 | 1.7 | 0.00 | 0.01 | 0.01 | 88 | 1009.7 |
| 20260509230025 | 57 | 169 | 0.0 | 0.0 | 0.00 | 0.01 | 0.01 | 88 | 1009.7 |
| 20260509225520 | 57 | 174 | 0.9 | 1.7 | 0.00 | 0.01 | 0.01 | 88 | 1009.9 |
| 20260509225016 | 57 | 157 | 0.0 | 0.0 | 0.00 | 0.01 | 0.01 | 87 | 1010.1 |
| 20260509224512 | 57 | 201 | 0.0 | 0.0 | 0.00 | 0.01 | 0.01 | 88 | 1009.9 |
| 20260509224009 | 57 | 190 | 0.9 | 0.9 | 0.00 | 0.01 | 0.01 | 88 | 1009.9 |
| 20260509223506 | 57 | 190 | 0.0 | 0.0 | 0.00 | 0.01 | 0.01 | 89 | 1009.8 |
| 20260509223004 | 56 | 198 | 0.9 | 1.7 | 0.00 | 0.01 | 0.01 | 88 | 1009.9 |
| 20260509222459 | 57 | 174 | 0.0 | 0.9 | 0.00 | 0.01 | 0.01 | 89 | 1010.1 |
| 20260509221955 | 57 | 173 | 0.0 | 0.0 | 0.00 | 0.01 | 0.01 | 89 | 1010.3 |
| 20260509221451 | 57 | 223 | 0.0 | 0.0 | 0.00 | 0.01 | 0.01 | 90 | 1010.0 |
| 20260509220948 | 57 | 159 | 0.9 | 0.9 | 0.00 | 0.01 | 0.01 | 90 | 1010.0 |
| 20260509220444 | 57 | 198 | 1.7 | 1.7 | 0.00 | 0.01 | 0.01 | 90 | 1010.4 |
| 20260509215939 | 56 | 180 | 0.9 | 0.9 | 0.00 | 0.01 | 0.01 | 90 | 1010.1 |
| 20260509215435 | 57 | 182 | 0.0 | 0.0 | 0.00 | 0.01 | 0.01 | 90 | 1010.6 |
| 20260509214933 | 56 | 178 | 0.0 | 0.0 | 0.00 | 0.01 | 0.01 | 89 | 1010.6 |
| 20260509214430 | 57 | 191 | 0.0 | 0.0 | 0.00 | 0.01 | 0.01 | 88 | 1010.7 |
| 20260509213927 | 57 | 190 | 0.0 | 0.0 | 0.00 | 0.01 | 0.01 | 87 | 1010.9 |
| 20260509213422 | 57 | 195 | 0.0 | 0.0 | 0.00 | 0.01 | 0.01 | 86 | 1010.6 |
| 20260509212920 | 57 | 178 | 0.0 | 0.0 | 0.00 | 0.01 | 0.01 | 85 | 1010.5 |
| 20260509212418 | 58 | 192 | 0.0 | 0.0 | 0.00 | 0.01 | 0.01 | 85 | 1010.6 |
| 20260509211914 | 58 | 189 | 0.0 | 0.0 | 0.00 | 0.01 | 0.01 | 82 | 1010.7 |
| 20260509211410 | 58 | 210 | 0.9 | 0.9 | 0.00 | 0.01 | 0.01 | 81 | 1010.9 |
| 20260509210906 | 58 | 280 | 0.9 | 1.7 | 0.00 | 0.01 | 0.01 | 81 | 1010.4 |
| 20260509210403 | 58 | 268 | 0.9 | 0.9 | 0.00 | 0.01 | 0.01 | 80 | 1010.1 |
| 20260509205858 | 58 | 159 | 0.0 | 0.0 | 0.00 | 0.01 | 0.01 | 79 | 1010.1 |
| 20260509205352 | 58 | 78 | 0.9 | 0.9 | 0.00 | 0.01 | 0.01 | 79 | 1010.2 |
| 20260509204849 | 58 | 68 | 0.0 | 0.9 | 0.00 | 0.01 | 0.01 | 78 | 1010.5 |
| 20260509204345 | 59 | 236 | 1.7 | 2.6 | 0.00 | 0.01 | 0.01 | 78 | 1010.1 |
| 20260509203841 | 59 | 354 | 1.7 | 1.7 | 0.00 | 0.01 | 0.01 | 78 | 1010.3 |
| 20260509203333 | 59 | 207 | 1.7 | 1.7 | 0.00 | 0.01 | 0.01 | 78 | 1010.2 |
| 20260509202830 | 58 | 23 | 1.7 | 1.7 | 0.00 | 0.01 | 0.01 | 78 | 1010.4 |
| 20260509202326 | 59 | 78 | 0.9 | 1.7 | 0.00 | 0.01 | 0.01 | 77 | 1010.2 |
| 20260509201825 | 59 | 247 | 2.6 | 2.6 | 0.00 | 0.01 | 0.01 | 78 | 1010.4 |
| 20260509201322 | 59 | 276 | 3.5 | 4.3 | 0.00 | 0.01 | 0.01 | 79 | 1010.3 |
| 20260509200819 | 59 | 243 | 1.7 | 1.7 | 0.00 | 0.01 | 0.01 | 80 | 1010.4 |
| 20260509200314 | 59 | 239 | 0.9 | 0.9 | 0.00 | 0.01 | 0.01 | 80 | 1010.4 |
| 20260509195811 | 59 | 18 | 5.2 | 6.1 | 0.00 | 0.01 | 0.01 | 79 | 1010.3 |
| 20260509195307 | 59 | 150 | 0.9 | 0.9 | 0.00 | 0.01 | 0.01 | 78 | 1010.4 |
| 20260509194805 | 59 | 40 | 1.7 | 2.6 | 0.00 | 0.01 | 0.01 | 78 | 1010.3 |
| 20260509194301 | 59 | 48 | 1.7 | 2.6 | 0.00 | 0.01 | 0.01 | 78 | 1010.3 |
| 20260509193758 | 59 | 32 | 3.5 | 4.3 | 0.00 | 0.01 | 0.01 | 78 | 1010.6 |
| 20260509193252 | 59 | 318 | 5.2 | 7.8 | 0.00 | 0.01 | 0.01 | 77 | 1010.8 |
| 20260509192749 | 59 | 330 | 2.6 | 4.3 | 0.00 | 0.01 | 0.01 | 77 | 1010.8 |
| 20260509192244 | 60 | 215 | 4.3 | 5.2 | 0.00 | 0.01 | 0.01 | 77 | 1010.5 |
| 20260509191740 | 60 | 275 | 2.6 | 4.3 | 0.00 | 0.01 | 0.01 | 76 | 1010.4 |
| 20260509191236 | 60 | 262 | 0.0 | 0.9 | 0.00 | 0.01 | 0.01 | 77 | 1010.5 |
| 20260509190732 | 60 | 56 | 1.7 | 1.7 | 0.00 | 0.01 | 0.01 | 77 | 1010.6 |
| 20260509190230 | 60 | 356 | 4.3 | 7.8 | 0.00 | 0.01 | 0.01 | 76 | 1010.6 |
| 20260509185727 | 60 | 219 | 2.6 | 4.3 | 0.00 | 0.01 | 0.01 | 76 | 1010.7 |
| 20260509185223 | 60 | 358 | 1.7 | 1.7 | 0.00 | 0.01 | 0.01 | 77 | 1010.6 |
| 20260509184721 | 60 | 19 | 2.6 | 2.6 | 0.00 | 0.01 | 0.01 | 77 | 1010.5 |
| 20260509184218 | 60 | 222 | 0.9 | 1.7 | 0.00 | 0.01 | 0.01 | 78 | 1010.4 |
| 20260509183714 | 60 | 14 | 1.7 | 2.6 | 0.00 | 0.01 | 0.01 | 78 | 1010.5 |
| 20260509183209 | 60 | 17 | 1.7 | 1.7 | 0.00 | 0.01 | 0.01 | 77 | 1010.5 |
| 20260509182705 | 59 | 36 | 1.7 | 1.7 | 0.05 | 0.01 | 0.01 | 77 | 1010.3 |
| 20260509182203 | 60 | 42 | 1.7 | 1.7 | 0.05 | 0.01 | 0.01 | 79 | 1010.5 |
| 20260509181700 | 60 | 32 | 1.7 | 1.7 | 0.00 | 0.00 | 0.00 | 78 | 1010.9 |
| 20260509181158 | 60 | 210 | 0.0 | 0.0 | 0.00 | 0.00 | 0.00 | 79 | 1010.9 |
| 20260509180654 | 61 | 229 | 0.9 | 0.9 | 0.00 | 0.00 | 0.00 | 77 | 1010.9 |
| 20260509180150 | 62 | 250 | 2.6 | 2.6 | 0.00 | 0.00 | 0.00 | 74 | 1010.7 |
| 20260509175647 | 63 | 162 | 2.6 | 2.6 | 0.00 | 0.00 | 0.00 | 70 | 1010.8 |
| 20260509175144 | 63 | 188 | 1.7 | 1.7 | 0.00 | 0.00 | 0.00 | 69 | 1010.7 |